sensor_id;sensor_type;location;lat;lon;timestamp;temperature;humidity
8856;DHT22;4464;50.882;4.730;2023-11-22T00:02:16;5.90;99.90
8856;DHT22;4464;50.882;4.730;2023-11-22T00:04:42;5.80;99.90
8856;DHT22;4464;50.882;4.730;2023-11-22T00:07:11;5.90;99.90
8856;DHT22;4464;50.882;4.730;2023-11-22T00:09:37;5.90;99.90
8856;DHT22;4464;50.882;4.730;2023-11-22T00:12:03;5.90;99.90
8856;DHT22;4464;50.882;4.730;2023-11-22T00:14:29;5.90;99.90
8856;DHT22;4464;50.882;4.730;2023-11-22T00:16:55;6.10;99.90
8856;DHT22;4464;50.882;4.730;2023-11-22T00:19:21;6.10;99.90
8856;DHT22;4464;50.882;4.730;2023-11-22T00:21:49;6.20;99.90
8856;DHT22;4464;50.882;4.730;2023-11-22T00:24:15;6.30;99.90
8856;DHT22;4464;50.882;4.730;2023-11-22T00:26:41;6.40;99.90
8856;DHT22;4464;50.882;4.730;2023-11-22T00:29:07;6.40;99.90
8856;DHT22;4464;50.882;4.730;2023-11-22T00:31:33;6.40;99.90
8856;DHT22;4464;50.882;4.730;2023-11-22T00:34:00;6.40;99.90
8856;DHT22;4464;50.882;4.730;2023-11-22T00:36:28;6.40;99.90
8856;DHT22;4464;50.882;4.730;2023-11-22T00:38:54;6.40;99.90
8856;DHT22;4464;50.882;4.730;2023-11-22T00:41:20;6.50;99.90
8856;DHT22;4464;50.882;4.730;2023-11-22T00:43:46;6.50;99.90
8856;DHT22;4464;50.882;4.730;2023-11-22T00:46:12;6.50;99.90
8856;DHT22;4464;50.882;4.730;2023-11-22T00:48:40;6.50;99.90
8856;DHT22;4464;50.882;4.730;2023-11-22T00:51:07;6.50;99.90
8856;DHT22;4464;50.882;4.730;2023-11-22T00:53:35;6.50;99.90
8856;DHT22;4464;50.882;4.730;2023-11-22T00:56:07;6.50;99.90
8856;DHT22;4464;50.882;4.730;2023-11-22T00:58:33;6.60;99.90
8856;DHT22;4464;50.882;4.730;2023-11-22T01:00:59;6.50;99.90
8856;DHT22;4464;50.882;4.730;2023-11-22T01:03:27;6.50;99.90
8856;DHT22;4464;50.882;4.730;2023-11-22T01:05:53;6.50;99.90
8856;DHT22;4464;50.882;4.730;2023-11-22T01:08:21;6.50;99.90
8856;DHT22;4464;50.882;4.730;2023-11-22T01:10:47;6.40;99.90
8856;DHT22;4464;50.882;4.730;2023-11-22T01:13:13;6.40;99.90
8856;DHT22;4464;50.882;4.730;2023-11-22T01:15:40;6.40;99.90
8856;DHT22;4464;50.882;4.730;2023-11-22T01:18:07;6.50;99.90
8856;DHT22;4464;50.882;4.730;2023-11-22T01:20:33;6.50;99.90
8856;DHT22;4464;50.882;4.730;2023-11-22T01:22:59;6.50;99.90
8856;DHT22;4464;50.882;4.730;2023-11-22T01:25:24;6.60;99.90
8856;DHT22;4464;50.882;4.730;2023-11-22T01:27:50;6.60;99.90
8856;DHT22;4464;50.882;4.730;2023-11-22T01:30:16;6.60;99.90
8856;DHT22;4464;50.882;4.730;2023-11-22T01:32:44;6.60;99.90
8856;DHT22;4464;50.882;4.730;2023-11-22T01:35:10;6.60;99.90
8856;DHT22;4464;50.882;4.730;2023-11-22T01:37:36;6.60;99.90
8856;DHT22;4464;50.882;4.730;2023-11-22T01:40:03;6.60;99.90
8856;DHT22;4464;50.882;4.730;2023-11-22T01:42:29;6.60;99.90
8856;DHT22;4464;50.882;4.730;2023-11-22T01:44:55;6.60;99.90
8856;DHT22;4464;50.882;4.730;2023-11-22T01:47:24;6.50;99.90
8856;DHT22;4464;50.882;4.730;2023-11-22T01:49:49;6.40;99.90
8856;DHT22;4464;50.882;4.730;2023-11-22T01:52:15;6.40;99.90
8856;DHT22;4464;50.882;4.730;2023-11-22T01:54:44;6.50;99.90
8856;DHT22;4464;50.882;4.730;2023-11-22T01:57:10;6.60;99.90
8856;DHT22;4464;50.882;4.730;2023-11-22T01:59:38;6.60;99.90
8856;DHT22;4464;50.882;4.730;2023-11-22T02:02:05;6.50;99.90
8856;DHT22;4464;50.882;4.730;2023-11-22T02:04:31;6.40;99.90
8856;DHT22;4464;50.882;4.730;2023-11-22T02:06:56;6.50;99.90
8856;DHT22;4464;50.882;4.730;2023-11-22T02:09:22;6.50;99.90
8856;DHT22;4464;50.882;4.730;2023-11-22T02:11:53;6.60;99.90
8856;DHT22;4464;50.882;4.730;2023-11-22T02:14:19;6.60;99.90
8856;DHT22;4464;50.882;4.730;2023-11-22T02:16:47;6.60;99.90
8856;DHT22;4464;50.882;4.730;2023-11-22T02:19:18;6.60;99.90
8856;DHT22;4464;50.882;4.730;2023-11-22T02:21:47;6.50;99.90
8856;DHT22;4464;50.882;4.730;2023-11-22T02:24:13;6.50;99.90
8856;DHT22;4464;50.882;4.730;2023-11-22T02:26:44;6.50;99.90
8856;DHT22;4464;50.882;4.730;2023-11-22T02:29:11;6.50;99.90
8856;DHT22;4464;50.882;4.730;2023-11-22T02:31:41;6.50;99.90
8856;DHT22;4464;50.882;4.730;2023-11-22T02:34:07;6.40;99.90
8856;DHT22;4464;50.882;4.730;2023-11-22T02:36:32;6.40;99.90
8856;DHT22;4464;50.882;4.730;2023-11-22T02:38:58;6.40;99.90
8856;DHT22;4464;50.882;4.730;2023-11-22T02:41:27;6.40;99.90
8856;DHT22;4464;50.882;4.730;2023-11-22T02:43:55;6.40;99.90
8856;DHT22;4464;50.882;4.730;2023-11-22T02:46:21;6.50;99.90
8856;DHT22;4464;50.882;4.730;2023-11-22T02:48:47;6.50;99.90
8856;DHT22;4464;50.882;4.730;2023-11-22T02:51:13;6.50;99.90
8856;DHT22;4464;50.882;4.730;2023-11-22T02:53:39;6.50;99.90
8856;DHT22;4464;50.882;4.730;2023-11-22T02:56:11;6.60;99.90
8856;DHT22;4464;50.882;4.730;2023-11-22T02:58:37;6.70;99.90
8856;DHT22;4464;50.882;4.730;2023-11-22T03:01:06;6.60;99.90
8856;DHT22;4464;50.882;4.730;2023-11-22T03:03:34;6.70;99.90
8856;DHT22;4464;50.882;4.730;2023-11-22T03:06:02;6.60;99.90
8856;DHT22;4464;50.882;4.730;2023-11-22T03:08:28;6.70;99.90
8856;DHT22;4464;50.882;4.730;2023-11-22T03:10:54;6.60;99.90
8856;DHT22;4464;50.882;4.730;2023-11-22T03:13:20;6.60;99.90
8856;DHT22;4464;50.882;4.730;2023-11-22T03:15:46;6.60;99.90
8856;DHT22;4464;50.882;4.730;2023-11-22T03:18:12;6.60;99.90
8856;DHT22;4464;50.882;4.730;2023-11-22T03:20:40;6.60;99.90
8856;DHT22;4464;50.882;4.730;2023-11-22T03:23:08;6.60;99.90
8856;DHT22;4464;50.882;4.730;2023-11-22T03:25:36;6.60;99.90
8856;DHT22;4464;50.882;4.730;2023-11-22T03:28:02;6.40;99.90
8856;DHT22;4464;50.882;4.730;2023-11-22T03:30:28;6.30;99.90
8856;DHT22;4464;50.882;4.730;2023-11-22T03:32:54;6.10;99.90
8856;DHT22;4464;50.882;4.730;2023-11-22T03:35:22;6.00;99.90
8856;DHT22;4464;50.882;4.730;2023-11-22T03:37:48;5.80;99.90
8856;DHT22;4464;50.882;4.730;2023-11-22T03:40:16;5.80;99.90
8856;DHT22;4464;50.882;4.730;2023-11-22T03:42:42;5.60;99.90
8856;DHT22;4464;50.882;4.730;2023-11-22T03:45:13;5.50;99.90
8856;DHT22;4464;50.882;4.730;2023-11-22T03:47:42;5.50;99.90
8856;DHT22;4464;50.882;4.730;2023-11-22T03:50:08;5.40;99.90
8856;DHT22;4464;50.882;4.730;2023-11-22T03:52:35;5.30;99.90
8856;DHT22;4464;50.882;4.730;2023-11-22T03:55:02;5.30;99.90
8856;DHT22;4464;50.882;4.730;2023-11-22T03:57:29;5.30;99.90
8856;DHT22;4464;50.882;4.730;2023-11-22T03:59:55;5.30;99.90
8856;DHT22;4464;50.882;4.730;2023-11-22T04:02:20;5.30;99.90
8856;DHT22;4464;50.882;4.730;2023-11-22T04:04:46;5.30;99.90
8856;DHT22;4464;50.882;4.730;2023-11-22T04:07:12;5.30;99.90
8856;DHT22;4464;50.882;4.730;2023-11-22T04:09:38;5.30;99.90
8856;DHT22;4464;50.882;4.730;2023-11-22T04:12:04;5.40;99.90
8856;DHT22;4464;50.882;4.730;2023-11-22T04:14:30;5.40;99.90
8856;DHT22;4464;50.882;4.730;2023-11-22T04:16:55;5.40;99.90
8856;DHT22;4464;50.882;4.730;2023-11-22T04:19:21;5.50;99.90
8856;DHT22;4464;50.882;4.730;2023-11-22T04:21:50;5.50;99.90
8856;DHT22;4464;50.882;4.730;2023-11-22T04:24:19;5.50;99.90
8856;DHT22;4464;50.882;4.730;2023-11-22T04:26:50;5.70;99.90
8856;DHT22;4464;50.882;4.730;2023-11-22T04:29:16;5.80;99.90
8856;DHT22;4464;50.882;4.730;2023-11-22T04:31:42;5.70;99.90
8856;DHT22;4464;50.882;4.730;2023-11-22T04:34:10;5.70;99.90
8856;DHT22;4464;50.882;4.730;2023-11-22T04:36:36;5.60;99.90
8856;DHT22;4464;50.882;4.730;2023-11-22T04:39:02;5.40;99.90
8856;DHT22;4464;50.882;4.730;2023-11-22T04:41:32;5.40;99.90
8856;DHT22;4464;50.882;4.730;2023-11-22T04:44:00;5.40;99.90
8856;DHT22;4464;50.882;4.730;2023-11-22T04:46:31;5.40;99.90
8856;DHT22;4464;50.882;4.730;2023-11-22T04:48:59;5.30;99.90
8856;DHT22;4464;50.882;4.730;2023-11-22T04:51:28;5.30;99.90
8856;DHT22;4464;50.882;4.730;2023-11-22T04:53:57;5.10;99.90
8856;DHT22;4464;50.882;4.730;2023-11-22T04:56:25;4.90;99.90
8856;DHT22;4464;50.882;4.730;2023-11-22T04:58:51;4.90;99.90
8856;DHT22;4464;50.882;4.730;2023-11-22T05:01:19;4.90;99.90
8856;DHT22;4464;50.882;4.730;2023-11-22T05:03:45;4.90;99.90
8856;DHT22;4464;50.882;4.730;2023-11-22T05:06:11;4.90;99.90
8856;DHT22;4464;50.882;4.730;2023-11-22T05:08:37;4.80;99.90
8856;DHT22;4464;50.882;4.730;2023-11-22T05:11:03;4.70;99.90
8856;DHT22;4464;50.882;4.730;2023-11-22T05:13:33;4.70;99.90
8856;DHT22;4464;50.882;4.730;2023-11-22T05:15:59;4.80;99.90
8856;DHT22;4464;50.882;4.730;2023-11-22T05:18:28;4.80;99.90
8856;DHT22;4464;50.882;4.730;2023-11-22T05:20:54;4.80;99.90
8856;DHT22;4464;50.882;4.730;2023-11-22T05:23:20;4.80;99.90
8856;DHT22;4464;50.882;4.730;2023-11-22T05:25:46;4.90;99.90
8856;DHT22;4464;50.882;4.730;2023-11-22T05:28:12;4.90;99.90
8856;DHT22;4464;50.882;4.730;2023-11-22T05:30:38;4.90;99.90
8856;DHT22;4464;50.882;4.730;2023-11-22T05:33:07;4.90;99.90
8856;DHT22;4464;50.882;4.730;2023-11-22T05:35:32;5.00;99.90
8856;DHT22;4464;50.882;4.730;2023-11-22T05:38:01;5.00;99.90
8856;DHT22;4464;50.882;4.730;2023-11-22T05:40:27;4.90;99.90
8856;DHT22;4464;50.882;4.730;2023-11-22T05:42:53;4.90;99.90
8856;DHT22;4464;50.882;4.730;2023-11-22T05:45:22;5.00;99.90
8856;DHT22;4464;50.882;4.730;2023-11-22T05:47:51;5.10;99.90
8856;DHT22;4464;50.882;4.730;2023-11-22T05:50:17;5.30;99.90
8856;DHT22;4464;50.882;4.730;2023-11-22T05:52:44;5.40;99.90
8856;DHT22;4464;50.882;4.730;2023-11-22T05:55:10;5.50;99.90
8856;DHT22;4464;50.882;4.730;2023-11-22T05:57:40;5.50;99.90
8856;DHT22;4464;50.882;4.730;2023-11-22T06:00:08;5.60;99.90
8856;DHT22;4464;50.882;4.730;2023-11-22T06:02:36;5.50;99.90
8856;DHT22;4464;50.882;4.730;2023-11-22T06:05:04;5.50;99.90
8856;DHT22;4464;50.882;4.730;2023-11-22T06:07:31;5.60;99.90
8856;DHT22;4464;50.882;4.730;2023-11-22T06:09:57;5.70;99.90
8856;DHT22;4464;50.882;4.730;2023-11-22T06:12:23;5.60;99.90
8856;DHT22;4464;50.882;4.730;2023-11-22T06:14:49;5.60;99.90
8856;DHT22;4464;50.882;4.730;2023-11-22T06:17:15;5.70;99.90
8856;DHT22;4464;50.882;4.730;2023-11-22T06:19:41;5.80;99.90
8856;DHT22;4464;50.882;4.730;2023-11-22T06:22:07;5.80;99.90
8856;DHT22;4464;50.882;4.730;2023-11-22T06:24:33;5.90;99.90
8856;DHT22;4464;50.882;4.730;2023-11-22T06:27:02;5.80;99.90
8856;DHT22;4464;50.882;4.730;2023-11-22T06:29:28;5.70;99.90
8856;DHT22;4464;50.882;4.730;2023-11-22T06:31:57;5.70;99.90
8856;DHT22;4464;50.882;4.730;2023-11-22T06:34:22;5.70;99.90
8856;DHT22;4464;50.882;4.730;2023-11-22T06:36:48;5.70;99.90
8856;DHT22;4464;50.882;4.730;2023-11-22T06:39:16;5.80;99.90
8856;DHT22;4464;50.882;4.730;2023-11-22T06:41:43;5.90;99.90
8856;DHT22;4464;50.882;4.730;2023-11-22T06:44:08;5.90;99.90
8856;DHT22;4464;50.882;4.730;2023-11-22T06:46:35;5.90;99.90
8856;DHT22;4464;50.882;4.730;2023-11-22T06:49:01;5.90;99.90
8856;DHT22;4464;50.882;4.730;2023-11-22T06:51:26;5.90;99.90
8856;DHT22;4464;50.882;4.730;2023-11-22T06:53:52;6.00;99.90
8856;DHT22;4464;50.882;4.730;2023-11-22T06:56:20;6.10;99.90
8856;DHT22;4464;50.882;4.730;2023-11-22T06:58:48;6.10;99.90
8856;DHT22;4464;50.882;4.730;2023-11-22T07:01:14;6.10;99.90
8856;DHT22;4464;50.882;4.730;2023-11-22T07:03:40;6.10;99.90
8856;DHT22;4464;50.882;4.730;2023-11-22T07:06:07;6.20;99.90
8856;DHT22;4464;50.882;4.730;2023-11-22T07:08:33;6.10;99.90
8856;DHT22;4464;50.882;4.730;2023-11-22T07:11:00;6.10;99.90
8856;DHT22;4464;50.882;4.730;2023-11-22T07:13:29;6.00;99.90
8856;DHT22;4464;50.882;4.730;2023-11-22T07:15:54;5.90;99.90
8856;DHT22;4464;50.882;4.730;2023-11-22T07:18:20;5.90;99.90
8856;DHT22;4464;50.882;4.730;2023-11-22T07:20:50;5.90;99.90
8856;DHT22;4464;50.882;4.730;2023-11-22T07:23:15;5.90;99.90
8856;DHT22;4464;50.882;4.730;2023-11-22T07:25:41;5.90;99.90
8856;DHT22;4464;50.882;4.730;2023-11-22T07:28:07;6.00;99.90
8856;DHT22;4464;50.882;4.730;2023-11-22T07:30:33;6.10;99.90
8856;DHT22;4464;50.882;4.730;2023-11-22T07:32:59;6.10;99.90
8856;DHT22;4464;50.882;4.730;2023-11-22T07:35:25;6.10;99.90
8856;DHT22;4464;50.882;4.730;2023-11-22T07:37:55;6.20;99.90
8856;DHT22;4464;50.882;4.730;2023-11-22T07:40:24;6.20;99.90
8856;DHT22;4464;50.882;4.730;2023-11-22T07:42:49;6.30;99.90
8856;DHT22;4464;50.882;4.730;2023-11-22T07:45:15;6.30;99.90
8856;DHT22;4464;50.882;4.730;2023-11-22T07:47:42;6.30;99.90
8856;DHT22;4464;50.882;4.730;2023-11-22T07:50:09;6.40;99.90
8856;DHT22;4464;50.882;4.730;2023-11-22T07:52:39;6.30;99.90
8856;DHT22;4464;50.882;4.730;2023-11-22T07:55:09;6.30;99.90
8856;DHT22;4464;50.882;4.730;2023-11-22T07:57:35;6.30;99.90
8856;DHT22;4464;50.882;4.730;2023-11-22T08:00:01;6.30;99.90
8856;DHT22;4464;50.882;4.730;2023-11-22T08:02:30;6.30;99.90
8856;DHT22;4464;50.882;4.730;2023-11-22T08:04:56;6.20;99.90
8856;DHT22;4464;50.882;4.730;2023-11-22T08:07:22;6.30;99.90
8856;DHT22;4464;50.882;4.730;2023-11-22T08:09:49;6.40;99.90
8856;DHT22;4464;50.882;4.730;2023-11-22T08:12:15;6.30;99.90
8856;DHT22;4464;50.882;4.730;2023-11-22T08:14:40;6.40;99.90
8856;DHT22;4464;50.882;4.730;2023-11-22T08:17:08;6.50;99.90
8856;DHT22;4464;50.882;4.730;2023-11-22T08:19:37;6.50;99.90
8856;DHT22;4464;50.882;4.730;2023-11-22T08:22:07;6.50;99.90
8856;DHT22;4464;50.882;4.730;2023-11-22T08:24:36;6.50;99.90
8856;DHT22;4464;50.882;4.730;2023-11-22T08:27:02;6.40;99.90
8856;DHT22;4464;50.882;4.730;2023-11-22T08:29:28;6.50;99.90
8856;DHT22;4464;50.882;4.730;2023-11-22T08:31:54;6.20;99.90
8856;DHT22;4464;50.882;4.730;2023-11-22T08:34:23;6.10;99.90
8856;DHT22;4464;50.882;4.730;2023-11-22T08:36:49;6.20;99.90
8856;DHT22;4464;50.882;4.730;2023-11-22T08:39:17;6.30;99.90
8856;DHT22;4464;50.882;4.730;2023-11-22T08:41:42;6.50;99.90
8856;DHT22;4464;50.882;4.730;2023-11-22T08:44:08;6.60;99.90
8856;DHT22;4464;50.882;4.730;2023-11-22T08:46:34;6.80;99.90
8856;DHT22;4464;50.882;4.730;2023-11-22T08:49:00;6.90;99.90
8856;DHT22;4464;50.882;4.730;2023-11-22T08:51:30;7.00;99.90
8856;DHT22;4464;50.882;4.730;2023-11-22T08:53:58;6.90;99.90
8856;DHT22;4464;50.882;4.730;2023-11-22T08:56:24;6.80;99.90
8856;DHT22;4464;50.882;4.730;2023-11-22T08:58:50;7.00;99.90
8856;DHT22;4464;50.882;4.730;2023-11-22T09:01:16;7.00;99.90
8856;DHT22;4464;50.882;4.730;2023-11-22T09:03:43;7.10;99.90
8856;DHT22;4464;50.882;4.730;2023-11-22T09:06:09;7.20;99.90
8856;DHT22;4464;50.882;4.730;2023-11-22T09:08:35;7.20;99.90
8856;DHT22;4464;50.882;4.730;2023-11-22T09:11:03;7.20;99.90
8856;DHT22;4464;50.882;4.730;2023-11-22T09:13:32;7.30;99.90
8856;DHT22;4464;50.882;4.730;2023-11-22T09:15:58;7.20;99.90
8856;DHT22;4464;50.882;4.730;2023-11-22T09:18:24;7.20;99.90
8856;DHT22;4464;50.882;4.730;2023-11-22T09:20:50;7.40;99.90
8856;DHT22;4464;50.882;4.730;2023-11-22T09:23:18;7.40;99.90
8856;DHT22;4464;50.882;4.730;2023-11-22T09:25:44;7.50;99.90
8856;DHT22;4464;50.882;4.730;2023-11-22T09:28:09;7.50;99.90
8856;DHT22;4464;50.882;4.730;2023-11-22T09:30:35;7.60;99.90
8856;DHT22;4464;50.882;4.730;2023-11-22T09:35:44;7.70;99.90
8856;DHT22;4464;50.882;4.730;2023-11-22T09:38:16;8.00;99.90
8856;DHT22;4464;50.882;4.730;2023-11-22T09:40:43;8.10;99.90
8856;DHT22;4464;50.882;4.730;2023-11-22T09:43:12;8.10;99.90
8856;DHT22;4464;50.882;4.730;2023-11-22T09:45:40;8.10;99.90
8856;DHT22;4464;50.882;4.730;2023-11-22T09:48:17;7.80;99.90
8856;DHT22;4464;50.882;4.730;2023-11-22T09:53:59;7.90;99.90
8856;DHT22;4464;50.882;4.730;2023-11-22T09:56:30;7.70;99.90
8856;DHT22;4464;50.882;4.730;2023-11-22T09:59:00;7.50;99.90
8856;DHT22;4464;50.882;4.730;2023-11-22T10:01:29;7.70;99.90
8856;DHT22;4464;50.882;4.730;2023-11-22T10:03:57;7.70;99.90
8856;DHT22;4464;50.882;4.730;2023-11-22T10:06:26;7.80;99.90
8856;DHT22;4464;50.882;4.730;2023-11-22T10:08:58;7.70;99.90
8856;DHT22;4464;50.882;4.730;2023-11-22T10:11:24;7.50;99.90
8856;DHT22;4464;50.882;4.730;2023-11-22T10:13:52;7.50;99.90
8856;DHT22;4464;50.882;4.730;2023-11-22T10:16:19;7.50;99.90
8856;DHT22;4464;50.882;4.730;2023-11-22T10:18:47;7.50;99.90
8856;DHT22;4464;50.882;4.730;2023-11-22T10:23:50;7.70;99.90
8856;DHT22;4464;50.882;4.730;2023-11-22T10:26:17;7.60;99.90
8856;DHT22;4464;50.882;4.730;2023-11-22T10:28:43;7.70;99.90
8856;DHT22;4464;50.882;4.730;2023-11-22T10:31:12;7.90;99.90
8856;DHT22;4464;50.882;4.730;2023-11-22T10:33:40;8.00;99.90
8856;DHT22;4464;50.882;4.730;2023-11-22T10:36:07;8.10;99.90
8856;DHT22;4464;50.882;4.730;2023-11-22T10:38:34;8.20;99.90
8856;DHT22;4464;50.882;4.730;2023-11-22T10:41:07;8.10;99.90
8856;DHT22;4464;50.882;4.730;2023-11-22T10:43:35;7.90;99.90
8856;DHT22;4464;50.882;4.730;2023-11-22T10:46:04;7.60;99.90
8856;DHT22;4464;50.882;4.730;2023-11-22T10:48:32;7.70;99.90
8856;DHT22;4464;50.882;4.730;2023-11-22T10:51:01;7.90;99.90
8856;DHT22;4464;50.882;4.730;2023-11-22T10:53:38;7.80;99.90
8856;DHT22;4464;50.882;4.730;2023-11-22T10:56:17;7.90;99.90
8856;DHT22;4464;50.882;4.730;2023-11-22T10:58:55;8.00;99.90
8856;DHT22;4464;50.882;4.730;2023-11-22T11:01:24;8.00;99.90
8856;DHT22;4464;50.882;4.730;2023-11-22T11:04:08;8.30;99.90
8856;DHT22;4464;50.882;4.730;2023-11-22T11:06:37;8.30;99.90
8856;DHT22;4464;50.882;4.730;2023-11-22T11:09:05;8.40;99.90
8856;DHT22;4464;50.882;4.730;2023-11-22T11:11:35;8.50;99.90
8856;DHT22;4464;50.882;4.730;2023-11-22T11:14:02;8.50;99.90
8856;DHT22;4464;50.882;4.730;2023-11-22T11:16:31;8.60;99.90
8856;DHT22;4464;50.882;4.730;2023-11-22T11:18:58;8.60;99.90
8856;DHT22;4464;50.882;4.730;2023-11-22T11:21:25;8.50;99.90
8856;DHT22;4464;50.882;4.730;2023-11-22T11:23:52;8.80;99.90
8856;DHT22;4464;50.882;4.730;2023-11-22T11:26:20;9.30;99.90
8856;DHT22;4464;50.882;4.730;2023-11-22T11:28:51;9.50;99.90
8856;DHT22;4464;50.882;4.730;2023-11-22T11:31:24;9.50;99.90
8856;DHT22;4464;50.882;4.730;2023-11-22T11:33:56;9.40;99.90
8856;DHT22;4464;50.882;4.730;2023-11-22T11:36:31;9.20;99.90
8856;DHT22;4464;50.882;4.730;2023-11-22T11:39:00;9.10;99.90
8856;DHT22;4464;50.882;4.730;2023-11-22T11:41:33;9.20;99.90
8856;DHT22;4464;50.882;4.730;2023-11-22T11:44:07;9.30;99.90
8856;DHT22;4464;50.882;4.730;2023-11-22T11:46:34;9.50;99.90
8856;DHT22;4464;50.882;4.730;2023-11-22T11:49:00;9.70;99.90
8856;DHT22;4464;50.882;4.730;2023-11-22T11:51:28;9.90;99.90
8856;DHT22;4464;50.882;4.730;2023-11-22T11:53:55;10.60;99.90
8856;DHT22;4464;50.882;4.730;2023-11-22T11:56:21;11.00;99.90
8856;DHT22;4464;50.882;4.730;2023-11-22T11:58:49;11.00;99.90
8856;DHT22;4464;50.882;4.730;2023-11-22T12:01:16;11.20;99.90
8856;DHT22;4464;50.882;4.730;2023-11-22T12:03:44;11.60;99.90
8856;DHT22;4464;50.882;4.730;2023-11-22T12:06:10;11.80;99.90
8856;DHT22;4464;50.882;4.730;2023-11-22T12:08:36;12.20;99.90
8856;DHT22;4464;50.882;4.730;2023-11-22T12:11:07;12.30;99.90
8856;DHT22;4464;50.882;4.730;2023-11-22T12:13:34;12.20;99.90
8856;DHT22;4464;50.882;4.730;2023-11-22T12:16:07;12.20;99.90
8856;DHT22;4464;50.882;4.730;2023-11-22T12:18:49;12.20;99.90
8856;DHT22;4464;50.882;4.730;2023-11-22T12:21:18;12.00;99.90
8856;DHT22;4464;50.882;4.730;2023-11-22T12:23:47;11.50;99.90
8856;DHT22;4464;50.882;4.730;2023-11-22T12:26:19;11.30;99.90
8856;DHT22;4464;50.882;4.730;2023-11-22T12:28:49;10.80;99.90
8856;DHT22;4464;50.882;4.730;2023-11-22T12:31:18;10.80;99.90
8856;DHT22;4464;50.882;4.730;2023-11-22T12:33:44;10.90;99.90
8856;DHT22;4464;50.882;4.730;2023-11-22T12:36:11;11.00;99.90
8856;DHT22;4464;50.882;4.730;2023-11-22T12:38:42;10.60;99.90
8856;DHT22;4464;50.882;4.730;2023-11-22T12:41:08;10.50;99.90
8856;DHT22;4464;50.882;4.730;2023-11-22T12:43:35;10.20;99.90
8856;DHT22;4464;50.882;4.730;2023-11-22T12:46:02;10.00;99.90
8856;DHT22;4464;50.882;4.730;2023-11-22T12:48:28;10.00;99.90
8856;DHT22;4464;50.882;4.730;2023-11-22T12:50:58;10.30;99.90
8856;DHT22;4464;50.882;4.730;2023-11-22T12:53:25;10.50;99.90
8856;DHT22;4464;50.882;4.730;2023-11-22T12:55:54;10.40;99.90
8856;DHT22;4464;50.882;4.730;2023-11-22T12:58:21;10.40;99.90
8856;DHT22;4464;50.882;4.730;2023-11-22T13:00:49;10.60;99.90
8856;DHT22;4464;50.882;4.730;2023-11-22T13:03:14;10.30;99.90
8856;DHT22;4464;50.882;4.730;2023-11-22T13:05:42;10.70;99.90
8856;DHT22;4464;50.882;4.730;2023-11-22T13:08:12;11.20;99.90
8856;DHT22;4464;50.882;4.730;2023-11-22T13:10:44;11.30;99.90
8856;DHT22;4464;50.882;4.730;2023-11-22T13:13:16;11.00;99.90
8856;DHT22;4464;50.882;4.730;2023-11-22T13:15:42;11.30;99.90
8856;DHT22;4464;50.882;4.730;2023-11-22T13:18:08;11.30;99.90
8856;DHT22;4464;50.882;4.730;2023-11-22T13:20:34;12.00;99.90
8856;DHT22;4464;50.882;4.730;2023-11-22T13:23:01;13.30;99.90
8856;DHT22;4464;50.882;4.730;2023-11-22T13:25:28;14.10;99.90
8856;DHT22;4464;50.882;4.730;2023-11-22T13:27:54;13.50;99.90
8856;DHT22;4464;50.882;4.730;2023-11-22T13:30:26;13.60;99.90
8856;DHT22;4464;50.882;4.730;2023-11-22T13:32:53;13.80;99.90
8856;DHT22;4464;50.882;4.730;2023-11-22T13:35:22;14.50;99.90
8856;DHT22;4464;50.882;4.730;2023-11-22T13:37:48;14.80;99.90
8856;DHT22;4464;50.882;4.730;2023-11-22T13:40:17;15.30;99.90
8856;DHT22;4464;50.882;4.730;2023-11-22T13:42:47;16.10;99.90
8856;DHT22;4464;50.882;4.730;2023-11-22T13:45:16;16.80;99.40
8856;DHT22;4464;50.882;4.730;2023-11-22T13:50:17;17.40;98.20
8856;DHT22;4464;50.882;4.730;2023-11-22T13:52:54;17.40;97.20
8856;DHT22;4464;50.882;4.730;2023-11-22T13:55:26;16.50;97.30
8856;DHT22;4464;50.882;4.730;2023-11-22T13:57:57;15.40;97.60
8856;DHT22;4464;50.882;4.730;2023-11-22T14:00:28;14.20;98.70
8856;DHT22;4464;50.882;4.730;2023-11-22T14:02:59;13.20;99.90
8856;DHT22;4464;50.882;4.730;2023-11-22T14:05:32;12.30;99.90
8856;DHT22;4464;50.882;4.730;2023-11-22T14:08:02;11.40;99.90
8856;DHT22;4464;50.882;4.730;2023-11-22T14:10:28;10.90;99.90
8856;DHT22;4464;50.882;4.730;2023-11-22T14:12:54;10.70;99.90
8856;DHT22;4464;50.882;4.730;2023-11-22T14:15:20;10.50;99.90
8856;DHT22;4464;50.882;4.730;2023-11-22T14:17:45;10.30;99.90
8856;DHT22;4464;50.882;4.730;2023-11-22T14:20:15;10.40;99.90
8856;DHT22;4464;50.882;4.730;2023-11-22T14:22:42;10.50;99.90
8856;DHT22;4464;50.882;4.730;2023-11-22T14:25:11;10.70;99.90
8856;DHT22;4464;50.882;4.730;2023-11-22T14:27:39;11.10;99.90
8856;DHT22;4464;50.882;4.730;2023-11-22T14:30:12;11.20;99.90
8856;DHT22;4464;50.882;4.730;2023-11-22T14:32:43;11.20;99.90
8856;DHT22;4464;50.882;4.730;2023-11-22T14:35:09;10.70;99.90
8856;DHT22;4464;50.882;4.730;2023-11-22T14:37:38;10.50;99.90
8856;DHT22;4464;50.882;4.730;2023-11-22T14:40:08;10.30;99.90
8856;DHT22;4464;50.882;4.730;2023-11-22T14:42:41;10.00;99.90
8856;DHT22;4464;50.882;4.730;2023-11-22T14:45:08;9.70;99.90
8856;DHT22;4464;50.882;4.730;2023-11-22T14:47:37;9.60;99.90
8856;DHT22;4464;50.882;4.730;2023-11-22T14:50:06;9.50;99.90
8856;DHT22;4464;50.882;4.730;2023-11-22T14:52:32;9.30;99.90
8856;DHT22;4464;50.882;4.730;2023-11-22T14:54:58;9.20;99.90
8856;DHT22;4464;50.882;4.730;2023-11-22T14:57:26;9.10;99.90
8856;DHT22;4464;50.882;4.730;2023-11-22T14:59:52;9.10;99.90
8856;DHT22;4464;50.882;4.730;2023-11-22T15:02:19;9.10;99.90
8856;DHT22;4464;50.882;4.730;2023-11-22T15:04:45;9.10;99.90
8856;DHT22;4464;50.882;4.730;2023-11-22T15:07:13;9.10;99.90
8856;DHT22;4464;50.882;4.730;2023-11-22T15:09:41;9.10;99.90
8856;DHT22;4464;50.882;4.730;2023-11-22T15:12:07;8.90;99.90
8856;DHT22;4464;50.882;4.730;2023-11-22T15:14:33;8.90;99.90
8856;DHT22;4464;50.882;4.730;2023-11-22T15:17:02;8.90;99.90
8856;DHT22;4464;50.882;4.730;2023-11-22T15:19:31;8.70;99.90
8856;DHT22;4464;50.882;4.730;2023-11-22T15:21:57;8.50;99.90
8856;DHT22;4464;50.882;4.730;2023-11-22T15:24:24;8.50;99.90
8856;DHT22;4464;50.882;4.730;2023-11-22T15:26:50;8.60;99.90
8856;DHT22;4464;50.882;4.730;2023-11-22T15:29:16;8.60;99.90
8856;DHT22;4464;50.882;4.730;2023-11-22T15:31:43;8.60;99.90
8856;DHT22;4464;50.882;4.730;2023-11-22T15:34:09;8.60;99.90
8856;DHT22;4464;50.882;4.730;2023-11-22T15:36:37;8.60;99.90
8856;DHT22;4464;50.882;4.730;2023-11-22T15:39:03;8.60;99.90
8856;DHT22;4464;50.882;4.730;2023-11-22T15:41:29;8.60;99.90
8856;DHT22;4464;50.882;4.730;2023-11-22T15:43:55;8.50;99.90
8856;DHT22;4464;50.882;4.730;2023-11-22T15:46:20;8.40;99.90
8856;DHT22;4464;50.882;4.730;2023-11-22T15:48:50;8.50;99.90
8856;DHT22;4464;50.882;4.730;2023-11-22T15:51:16;8.50;99.90
8856;DHT22;4464;50.882;4.730;2023-11-22T15:53:43;8.60;99.90
8856;DHT22;4464;50.882;4.730;2023-11-22T15:56:09;8.50;99.90
8856;DHT22;4464;50.882;4.730;2023-11-22T15:58:43;8.50;99.90
8856;DHT22;4464;50.882;4.730;2023-11-22T16:01:12;8.40;99.90
8856;DHT22;4464;50.882;4.730;2023-11-22T16:03:38;8.40;99.90
8856;DHT22;4464;50.882;4.730;2023-11-22T16:06:07;8.40;99.90
8856;DHT22;4464;50.882;4.730;2023-11-22T16:08:35;8.40;99.90
8856;DHT22;4464;50.882;4.730;2023-11-22T16:11:06;8.30;99.90
8856;DHT22;4464;50.882;4.730;2023-11-22T16:13:32;8.40;99.90
8856;DHT22;4464;50.882;4.730;2023-11-22T16:15:57;8.40;99.90
8856;DHT22;4464;50.882;4.730;2023-11-22T16:18:25;8.40;99.90
8856;DHT22;4464;50.882;4.730;2023-11-22T16:20:58;8.40;99.90
8856;DHT22;4464;50.882;4.730;2023-11-22T16:23:31;8.30;99.90
8856;DHT22;4464;50.882;4.730;2023-11-22T16:26:01;8.20;99.90
8856;DHT22;4464;50.882;4.730;2023-11-22T16:28:29;8.20;99.90